Time;durP1;ratioP1;P1;durP2;ratioP2;P2;SDS_P1;SDS_P2;PMS_P1;PMS_P2;Temp;Humidity;BMP_temperature;BMP_pressure;BME280_temperature;BME280_humidity;BME280_pressure;Samples;Min_cycle;Max_cycle;Signal;HPM_P1;HPM_P2
2023/05/07 00:00:10;;;;;;;5.13;2.10;;;19.70;97.20;;;;;;7385556;19;20314;-78
2023/05/07 00:02:40;;;;;;;6.78;2.28;;;19.70;97.30;;;;;;7384022;19;20027;-79
2023/05/07 00:05:11;;;;;;;5.65;1.88;;;19.70;97.30;;;;;;7385043;19;20009;-78
2023/05/07 00:07:40;;;;;;;6.30;2.55;;;19.70;97.40;;;;;;7384693;19;20010;-78
2023/05/07 00:10:15;;;;;;;8.40;2.33;;;19.70;97.40;;;;;;7405296;19;20024;-78
2023/05/07 00:12:43;;;;;;;3.38;2.10;;;19.70;97.30;;;;;;7386590;19;20357;-78
2023/05/07 00:15:13;;;;;;;6.88;2.00;;;19.70;97.20;;;;;;7384880;19;20007;-78
2023/05/07 00:17:41;;;;;;;6.63;2.50;;;19.70;97.40;;;;;;7385997;19;20006;-78
2023/05/07 00:20:11;;;;;;;9.95;2.20;;;19.70;97.40;;;;;;7386914;19;20259;-79
2023/05/07 00:22:40;;;;;;;6.55;2.15;;;19.70;97.30;;;;;;7386909;19;20019;-78
2023/05/07 00:25:13;;;;;;;4.40;2.00;;;19.70;97.10;;;;;;7407020;19;20033;-78
2023/05/07 00:27:42;;;;;;;9.45;2.33;;;19.60;97.20;;;;;;7384838;19;20014;-78
2023/05/07 00:30:11;;;;;;;4.90;2.08;;;19.70;97.30;;;;;;7388040;19;20224;-79
2023/05/07 00:32:40;;;;;;;5.65;1.35;;;19.60;97.20;;;;;;7388314;19;20019;-79
2023/05/07 00:35:10;;;;;;;1.83;1.00;;;19.60;96.60;;;;;;7384344;19;20011;-79
2023/05/07 00:37:39;;;;;;;4.10;1.15;;;19.40;95.50;;;;;;7383743;19;20025;-78
2023/05/07 00:40:10;;;;;;;2.60;0.95;;;19.40;96.50;;;;;;7404050;19;20018;-78
2023/05/07 00:42:41;;;;;;;2.28;1.38;;;19.40;96.80;;;;;;7385134;19;20030;-78
2023/05/07 00:45:10;;;;;;;;;;;19.40;97.00;;;;;;7386056;19;20024;-78
2023/05/07 00:47:39;;;;;;;2.45;0.80;;;19.50;97.20;;;;;;7385184;19;19915;-77
2023/05/07 00:50:10;;;;;;;5.13;1.10;;;19.40;96.60;;;;;;7382228;19;20002;-77
2023/05/07 00:52:42;;;;;;;1.08;0.82;;;19.40;96.50;;;;;;7384109;19;19996;-77
2023/05/07 00:55:11;;;;;;;7.20;0.80;;;19.30;96.20;;;;;;7403186;19;20035;-77
2023/05/07 00:57:44;;;;;;;1.35;1.10;;;19.30;96.40;;;;;;7381762;19;20063;-77
2023/05/07 01:00:14;;;;;;;2.63;1.00;;;19.20;96.10;;;;;;7382434;19;20003;-78
2023/05/07 01:02:43;;;;;;;3.30;1.00;;;19.30;96.50;;;;;;7383116;19;20010;-78
2023/05/07 01:05:14;;;;;;;6.13;1.20;;;19.30;96.80;;;;;;7382857;19;19999;-79
2023/05/07 01:07:44;;;;;;;;;;;19.30;97.20;;;;;;7384227;19;20037;-78
2023/05/07 01:10:14;;;;;;;3.85;1.15;;;19.40;97.50;;;;;;7404048;19;20203;-76
2023/05/07 01:12:50;;;;;;;4.03;1.02;;;19.40;97.20;;;;;;7381494;19;20010;-78
2023/05/07 01:15:21;;;;;;;2.53;1.20;;;19.40;97.30;;;;;;7384890;19;20361;-78
2023/05/07 01:17:49;;;;;;;2.95;1.23;;;19.40;97.30;;;;;;7391202;19;20222;-78
2023/05/07 01:20:20;;;;;;;5.55;1.85;;;19.50;97.40;;;;;;7387890;19;20011;-78
2023/05/07 01:22:52;;;;;;;4.95;1.67;;;19.50;97.40;;;;;;7388746;19;20003;-78
2023/05/07 01:25:22;;;;;;;4.43;1.80;;;19.50;97.50;;;;;;7388800;19;20475;-78
2023/05/07 01:27:51;;;;;;;4.40;1.50;;;19.50;97.50;;;;;;7410283;19;20007;-78
2023/05/07 01:30:23;;;;;;;3.50;1.27;;;19.50;97.50;;;;;;7388814;19;20010;-78
2023/05/07 01:32:56;;;;;;;8.70;1.35;;;19.50;97.10;;;;;;7388733;19;20011;-78
2023/05/07 01:35:31;;;;;;;1.83;1.05;;;19.50;97.30;;;;;;7388110;19;20084;-79
2023/05/07 01:38:05;;;;;;;3.00;1.20;;;19.50;97.40;;;;;;7390216;19;20052;-78
2023/05/07 01:40:34;;;;;;;3.60;1.33;;;19.50;97.30;;;;;;7388993;19;20011;-78
2023/05/07 01:43:04;;;;;;;5.40;1.65;;;19.50;97.50;;;;;;7410823;19;20023;-79
2023/05/07 01:45:34;;;;;;;2.97;1.40;;;19.50;97.40;;;;;;7389532;19;20019;-78
2023/05/07 01:48:03;;;;;;;6.80;2.00;;;19.50;97.20;;;;;;7387531;19;20006;-77
2023/05/07 01:50:33;;;;;;;4.28;2.28;;;19.50;97.30;;;;;;7388934;19;20011;-77
2023/05/07 01:53:05;;;;;;;4.13;1.67;;;19.50;97.50;;;;;;7387502;19;20019;-78
2023/05/07 01:55:33;;;;;;;3.40;1.42;;;19.50;97.70;;;;;;7389658;19;20009;-78
2023/05/07 01:58:02;;;;;;;3.60;1.40;;;19.50;97.60;;;;;;7411469;19;20369;-79
2023/05/07 02:00:31;;;;;;;5.63;1.50;;;19.50;97.50;;;;;;7388794;19;20011;-78
2023/05/07 02:03:00;;;;;;;22.35;3.65;;;19.50;97.50;;;;;;7389828;19;20011;-79
2023/05/07 02:05:29;;;;;;;13.30;2.60;;;19.50;97.50;;;;;;7388014;19;20014;-78
2023/05/07 02:07:57;;;;;;;26.08;4.00;;;19.40;97.50;;;;;;7389871;19;20010;-78
2023/05/07 02:10:29;;;;;;;16.80;2.72;;;19.40;97.50;;;;;;7391175;19;20014;-78
2023/05/07 02:13:02;;;;;;;3.45;1.33;;;19.40;97.60;;;;;;7411309;19;20023;-78
2023/05/07 02:15:35;;;;;;;8.18;1.70;;;19.30;97.20;;;;;;7384225;19;20011;-77
2023/05/07 02:18:06;;;;;;;3.60;1.55;;;19.30;97.20;;;;;;7385915;19;20009;-78
2023/05/07 02:20:35;;;;;;;;;;;19.30;97.60;;;;;;7386810;19;20006;-77
2023/05/07 02:23:03;;;;;;;2.13;1.55;;;19.40;97.80;;;;;;7388873;19;19918;-78
2023/05/07 02:25:35;;;;;;;5.10;1.27;;;19.30;97.70;;;;;;7384109;19;20010;-77
2023/05/07 02:28:03;;;;;;;6.38;1.85;;;19.30;97.80;;;;;;7406042;19;20028;-78
2023/05/07 02:30:32;;;;;;;4.70;1.73;;;19.40;98.00;;;;;;7384583;19;20011;-77
2023/05/07 02:33:01;;;;;;;7.88;2.00;;;19.40;98.10;;;;;;7385533;19;20251;-77
2023/05/07 02:35:30;;;;;;;7.25;1.90;;;19.30;97.80;;;;;;7384837;19;20039;-77
2023/05/07 02:37:58;;;;;;;6.20;2.75;;;19.30;97.80;;;;;;7386779;19;20023;-78
2023/05/07 02:40:27;;;;;;;9.77;2.00;;;19.30;97.90;;;;;;7385167;19;20010;-77
2023/05/07 02:43:01;;;;;;;6.60;2.70;;;19.30;97.60;;;;;;7404194;19;20003;-77
2023/05/07 02:45:30;;;;;;;6.05;2.70;;;19.30;97.70;;;;;;7384769;19;20165;-77
2023/05/07 02:47:59;;;;;;;7.53;4.03;;;19.20;97.40;;;;;;7384314;19;20366;-77
2023/05/07 02:50:28;;;;;;;5.95;3.00;;;19.10;97.60;;;;;;7384333;19;20071;-78
2023/05/07 02:52:56;;;;;;;12.25;2.83;;;19.10;97.80;;;;;;7383002;19;20014;-77
2023/05/07 02:55:25;;;;;;;6.65;2.35;;;19.10;98.00;;;;;;7383808;19;20010;-77
2023/05/07 02:57:54;;;;;;;6.68;2.50;;;19.20;98.20;;;;;;7404457;19;20037;-77
2023/05/07 03:00:27;;;;;;;6.10;2.40;;;19.20;98.40;;;;;;7386026;19;20250;-77
2023/05/07 03:02:56;;;;;;;6.50;1.80;;;19.20;98.00;;;;;;7392838;19;20014;-73
2023/05/07 03:05:29;;;;;;;4.95;1.83;;;19.10;97.70;;;;;;7387454;19;20062;-78
2023/05/07 03:07:57;;;;;;;7.28;2.15;;;19.10;97.90;;;;;;7385646;19;20023;-78
2023/05/07 03:10:26;;;;;;;3.88;1.90;;;19.20;98.10;;;;;;7384516;19;20006;-77
2023/05/07 03:12:55;;;;;;;11.05;2.42;;;19.20;98.10;;;;;;7405123;19;20010;-75
2023/05/07 03:15:26;;;;;;;8.90;3.30;;;19.20;98.00;;;;;;7382818;19;20066;-76
2023/05/07 03:17:55;;;;;;;;;;;19.20;97.90;;;;;;7386192;19;20264;-75
2023/05/07 03:20:24;;;;;;;4.88;2.30;;;19.20;97.90;;;;;;7385319;19;19972;-74
2023/05/07 03:22:53;;;;;;;5.78;1.65;;;19.10;97.80;;;;;;7384802;19;19998;-74
2023/05/07 03:25:22;;;;;;;10.40;4.50;;;19.10;97.90;;;;;;7382428;19;20070;-74
2023/05/07 03:27:50;;;;;;;6.90;3.95;;;19.10;98.00;;;;;;7405029;19;20010;-75
2023/05/07 03:30:19;;;;;;;10.60;3.78;;;19.10;98.10;;;;;;7383310;19;20239;-75
2023/05/07 03:32:51;;;;;;;7.95;2.50;;;19.10;98.20;;;;;;7383943;19;20365;-75
2023/05/07 03:35:20;;;;;;;;;;;19.10;98.20;;;;;;7383380;19;20018;-75
2023/05/07 03:37:48;;;;;;;3.70;2.15;;;19.20;98.50;;;;;;7383200;19;19914;-74
2023/05/07 03:40:17;;;;;;;5.03;1.77;;;19.10;98.20;;;;;;7404207;19;20015;-75
2023/05/07 03:42:46;;;;;;;3.35;2.20;;;19.10;98.20;;;;;;7382972;19;20006;-74
2023/05/07 03:45:15;;;;;;;9.27;2.00;;;19.10;98.20;;;;;;7382926;19;19998;-74
2023/05/07 03:47:44;;;;;;;6.28;1.70;;;19.10;98.20;;;;;;7383742;19;20019;-75
2023/05/07 03:50:15;;;;;;;6.00;2.30;;;19.10;98.20;;;;;;7383837;19;20010;-75
2023/05/07 03:52:44;;;;;;;;;;;19.10;98.40;;;;;;7384205;19;20024;-75
2023/05/07 03:55:13;;;;;;;5.80;1.80;;;19.20;98.30;;;;;;7403934;19;20226;-75
2023/05/07 03:57:41;;;;;;;6.85;1.92;;;19.10;98.00;;;;;;7383213;19;19999;-74
2023/05/07 04:00:11;;;;;;;3.17;1.80;;;19.10;98.20;;;;;;7398252;19;20022;-74
2023/05/07 04:02:40;;;;;;;3.65;1.70;;;19.10;98.30;;;;;;7391915;19;20003;-74
2023/05/07 04:05:09;;;;;;;3.72;2.10;;;19.10;98.40;;;;;;7391073;19;20016;-74
2023/05/07 04:07:40;;;;;;;5.97;2.13;;;19.20;98.50;;;;;;7387578;19;20032;-74
2023/05/07 04:10:10;;;;;;;3.97;2.13;;;19.10;98.50;;;;;;7406842;19;20223;-75
2023/05/07 04:12:39;;;;;;;4.85;1.70;;;19.10;98.50;;;;;;7382790;19;20013;-73
2023/05/07 04:15:08;;;;;;;7.32;2.20;;;19.10;98.20;;;;;;7385585;19;20023;-75
2023/05/07 04:17:37;;;;;;;4.95;2.20;;;19.10;98.20;;;;;;7384029;19;20006;-75
2023/05/07 04:20:08;;;;;;;7.13;2.80;;;19.10;98.20;;;;;;7382742;19;20014;-75
2023/05/07 04:22:36;;;;;;;6.93;2.70;;;19.10;98.20;;;;;;7382564;19;20019;-75
2023/05/07 04:25:09;;;;;;;6.63;1.98;;;19.10;98.30;;;;;;7402786;19;20058;-75
2023/05/07 04:27:40;;;;;;;6.90;2.00;;;19.10;98.00;;;;;;7382204;19;20368;-74
2023/05/07 04:30:10;;;;;;;4.20;2.25;;;19.10;97.90;;;;;;7382119;19;20010;-75
2023/05/07 04:32:39;;;;;;;4.90;2.58;;;19.10;98.00;;;;;;7382818;19;19999;-75
2023/05/07 04:35:10;;;;;;;6.88;2.33;;;19.10;98.10;;;;;;7381484;19;20003;-75
2023/05/07 04:37:39;;;;;;;7.60;2.47;;;19.00;98.20;;;;;;7380944;19;19999;-75
2023/05/07 04:40:11;;;;;;;4.53;2.33;;;19.10;98.30;;;;;;7401699;19;20023;-75
2023/05/07 04:42:39;;;;;;;5.43;1.88;;;19.00;98.50;;;;;;7381466;19;20018;-75
2023/05/07 04:45:10;;;;;;;2.20;1.80;;;19.10;98.40;;;;;;7381575;19;20022;-75
2023/05/07 04:47:38;;;;;;;5.78;1.73;;;19.10;98.50;;;;;;7381957;19;20343;-75
2023/05/07 04:50:09;;;;;;;4.85;2.03;;;19.10;98.30;;;;;;7379705;19;20048;-75
2023/05/07 04:52:37;;;;;;;8.38;2.30;;;19.10;98.40;;;;;;7387016;19;20100;-75
2023/05/07 04:55:09;;;;;;;10.32;2.35;;;19.10;98.50;;;;;;7404642;19;20019;-75
2023/05/07 04:57:41;;;;;;;13.80;2.50;;;19.10;98.60;;;;;;7381209;19;20006;-76
2023/05/07 05:00:13;;;;;;;10.05;1.95;;;19.10;98.60;;;;;;7380422;19;20063;-75
2023/05/07 05:02:42;;;;;;;5.03;1.85;;;19.10;98.60;;;;;;7380930;19;20013;-75
2023/05/07 05:05:11;;;;;;;4.95;1.73;;;19.10;98.40;;;;;;7381103;19;20273;-75
2023/05/07 05:07:40;;;;;;;8.23;2.03;;;19.10;98.40;;;;;;7380921;19;20028;-75
2023/05/07 05:10:09;;;;;;;3.65;1.67;;;19.00;98.40;;;;;;7403293;19;20010;-75
2023/05/07 05:12:41;;;;;;;8.25;1.52;;;19.00;98.50;;;;;;7380185;19;20260;-74
2023/05/07 05:15:11;;;;;;;2.63;1.60;;;19.00;98.20;;;;;;7379826;19;20003;-74
2023/05/07 05:17:40;;;;;;;4.40;1.70;;;19.00;98.20;;;;;;7380928;19;20011;-74
2023/05/07 05:20:10;;;;;;;3.15;1.60;;;19.00;98.50;;;;;;7383221;19;20019;-75
2023/05/07 05:22:39;;;;;;;3.38;1.63;;;19.00;98.60;;;;;;7381260;19;20000;-75
2023/05/07 05:25:08;;;;;;;4.75;1.40;;;19.10;98.50;;;;;;7402878;19;20031;-75
2023/05/07 05:27:40;;;;;;;5.80;1.58;;;19.00;98.50;;;;;;7380551;19;19999;-75
2023/05/07 05:30:10;;;;;;;2.75;1.63;;;19.00;98.50;;;;;;7380517;19;20064;-75
2023/05/07 05:32:38;;;;;;;3.70;1.60;;;19.10;98.40;;;;;;7380714;19;20011;-75
2023/05/07 05:35:08;;;;;;;4.38;1.92;;;19.00;98.50;;;;;;7379644;19;20020;-75
2023/05/07 05:37:37;;;;;;;3.17;1.55;;;19.10;98.50;;;;;;7382853;19;20422;-75
2023/05/07 05:40:06;;;;;;;5.72;1.77;;;19.10;98.60;;;;;;7402279;19;20024;-75
2023/05/07 05:42:35;;;;;;;4.90;1.80;;;19.10;98.40;;;;;;7380423;19;20242;-75
2023/05/07 05:45:07;;;;;;;3.55;1.73;;;19.10;98.50;;;;;;7379585;19;20342;-75
2023/05/07 05:47:35;;;;;;;4.38;1.80;;;19.10;98.40;;;;;;7379557;19;20020;-75
2023/05/07 05:50:05;;;;;;;3.38;1.58;;;19.10;98.60;;;;;;7381125;19;20034;-75
2023/05/07 05:52:34;;;;;;;3.38;1.80;;;19.10;98.70;;;;;;7378262;19;20074;-75
2023/05/07 05:55:03;;;;;;;3.70;1.80;;;19.10;98.70;;;;;;7402458;19;20024;-75
2023/05/07 05:57:31;;;;;;;3.88;1.50;;;19.10;98.80;;;;;;7382179;19;20006;-75
2023/05/07 06:00:00;;;;;;;2.78;1.60;;;19.10;98.70;;;;;;7383316;19;20431;-75
2023/05/07 06:02:31;;;;;;;6.25;1.42;;;19.10;98.60;;;;;;7388768;19;20003;-75
2023/05/07 06:05:00;;;;;;;2.65;1.73;;;19.10;98.80;;;;;;7387500;19;20010;-75
2023/05/07 06:07:29;;;;;;;5.40;1.90;;;19.20;98.80;;;;;;7388495;19;20292;-75
2023/05/07 06:09:57;;;;;;;1.80;1.38;;;19.20;98.80;;;;;;7407832;19;20011;-78
2023/05/07 06:12:26;;;;;;;2.97;1.52;;;19.20;98.90;;;;;;7388025;19;20003;-75
2023/05/07 06:14:55;;;;;;;4.85;1.48;;;19.20;99.00;;;;;;7388116;19;20007;-75
2023/05/07 06:17:24;;;;;;;3.33;1.20;;;19.30;99.10;;;;;;7390761;19;20029;-75
2023/05/07 06:19:55;;;;;;;7.82;1.40;;;19.30;99.00;;;;;;7404630;19;20003;-74
2023/05/07 06:22:24;;;;;;;2.25;1.30;;;19.30;98.60;;;;;;7392169;19;20015;-75
2023/05/07 06:24:52;;;;;;;5.38;1.55;;;19.30;98.40;;;;;;7409512;19;20009;-75
2023/05/07 06:27:23;;;;;;;7.43;1.40;;;19.30;98.50;;;;;;7388700;19;20006;-75
2023/05/07 06:29:52;;;;;;;5.70;1.90;;;19.30;98.60;;;;;;7388818;19;20292;-75
2023/05/07 06:32:21;;;;;;;3.45;2.03;;;19.30;98.60;;;;;;7388126;19;20019;-75
2023/05/07 06:34:50;;;;;;;3.63;1.95;;;19.40;98.50;;;;;;7388512;19;20365;-75
2023/05/07 06:37:21;;;;;;;5.63;2.67;;;19.40;98.60;;;;;;7393584;19;20006;-75
2023/05/07 06:39:50;;;;;;;8.38;2.47;;;19.40;98.70;;;;;;7408147;19;20011;-75
2023/05/07 06:42:19;;;;;;;2.13;1.65;;;19.40;98.60;;;;;;7387838;19;20063;-75
2023/05/07 06:44:47;;;;;;;2.85;1.38;;;19.40;98.50;;;;;;7387378;19;20373;-75
2023/05/07 06:47:16;;;;;;;3.08;1.90;;;19.40;98.50;;;;;;7388367;19;20006;-75
2023/05/07 06:49:45;;;;;;;5.65;1.77;;;19.40;98.40;;;;;;7388147;19;20003;-75
2023/05/07 06:52:13;;;;;;;5.10;1.90;;;19.40;98.40;;;;;;7407542;19;20002;-75
2023/05/07 06:54:46;;;;;;;2.97;1.50;;;19.40;98.60;;;;;;7384467;19;20281;-75
2023/05/07 06:57:15;;;;;;;4.15;1.90;;;19.40;98.80;;;;;;7384685;19;20028;-75
2023/05/07 06:59:44;;;;;;;2.08;1.77;;;19.40;99.10;;;;;;7385845;19;20007;-76
2023/05/07 07:02:12;;;;;;;3.50;1.90;;;19.40;98.80;;;;;;7388369;19;20007;-75
2023/05/07 07:04:41;;;;;;;2.95;1.98;;;19.50;99.00;;;;;;7387040;19;20017;-75
2023/05/07 07:07:10;;;;;;;4.70;2.33;;;19.50;98.90;;;;;;7405850;19;20303;-75
2023/05/07 07:09:39;;;;;;;3.80;1.85;;;19.50;98.90;;;;;;7383727;19;20003;-75
2023/05/07 07:12:10;;;;;;;7.00;2.17;;;19.60;99.10;;;;;;7383000;19;20007;-75
2023/05/07 07:14:39;;;;;;;;;;;19.60;99.30;;;;;;7385476;19;20010;-75
2023/05/07 07:17:08;;;;;;;4.95;2.03;;;19.70;99.40;;;;;;7384105;19;20144;-74
2023/05/07 07:19:37;;;;;;;6.35;1.98;;;19.70;98.80;;;;;;7388926;19;20018;-74
2023/05/07 07:22:06;;;;;;;4.38;1.98;;;19.70;98.80;;;;;;7410044;19;19999;-74
2023/05/07 07:24:34;;;;;;;6.38;1.83;;;19.70;98.90;;;;;;7383789;19;20063;-75
2023/05/07 07:27:03;;;;;;;5.70;2.05;;;19.70;99.20;;;;;;7383831;19;20006;-75
2023/05/07 07:29:35;;;;;;;2.72;1.63;;;19.70;99.10;;;;;;7383076;19;20007;-75
2023/05/07 07:32:04;;;;;;;2.35;1.70;;;19.70;99.00;;;;;;7382989;19;20286;-74
2023/05/07 07:34:32;;;;;;;5.78;1.95;;;19.70;98.60;;;;;;7383771;19;20035;-74
2023/05/07 07:37:05;;;;;;;5.57;2.25;;;19.70;98.60;;;;;;7404678;19;20058;-75
2023/05/07 07:39:33;;;;;;;3.47;1.90;;;19.70;98.70;;;;;;7384186;19;20007;-74
2023/05/07 07:42:02;;;;;;;2.25;1.75;;;19.70;98.60;;;;;;7386705;19;20023;-74
2023/05/07 07:44:35;;;;;;;4.45;2.10;;;19.80;99.00;;;;;;7383612;19;20007;-74
2023/05/07 07:47:03;;;;;;;4.13;1.77;;;19.80;99.00;;;;;;7383741;19;20019;-74
2023/05/07 07:49:35;;;;;;;3.75;2.03;;;19.80;99.00;;;;;;7383032;19;20007;-75
2023/05/07 07:52:03;;;;;;;4.15;2.00;;;19.80;99.10;;;;;;7404813;19;20039;-75
2023/05/07 07:54:32;;;;;;;4.68;2.20;;;19.90;99.30;;;;;;7384829;19;20027;-75
2023/05/07 07:57:01;;;;;;;4.57;1.65;;;19.90;99.30;;;;;;7383628;19;20007;-75
2023/05/07 07:59:30;;;;;;;1.90;1.17;;;19.90;99.10;;;;;;7387514;19;20022;-74
2023/05/07 08:02:01;;;;;;;5.43;1.40;;;20.00;98.30;;;;;;7391061;19;20011;-75
2023/05/07 08:04:30;;;;;;;;;;;20.00;99.10;;;;;;7384202;19;20014;-75
2023/05/07 08:06:59;;;;;;;4.07;2.00;;;20.10;99.20;;;;;;7404348;19;19999;-75
2023/05/07 08:09:28;;;;;;;6.72;2.00;;;20.10;98.40;;;;;;7384986;19;20287;-75
2023/05/07 08:11:57;;;;;;;2.58;2.10;;;20.10;97.70;;;;;;7386645;19;20019;-76
2023/05/07 08:14:26;;;;;;;4.63;1.80;;;20.10;97.40;;;;;;7382754;19;20058;-75
2023/05/07 08:16:55;;;;;;;3.70;2.40;;;20.10;97.60;;;;;;7380537;19;20002;-75
2023/05/07 08:19:26;;;;;;;2.95;2.00;;;20.10;97.10;;;;;;7382228;19;20011;-74
2023/05/07 08:21:55;;;;;;;;;;;20.10;97.70;;;;;;7403684;19;20014;-74
2023/05/07 08:24:23;;;;;;;3.17;2.25;;;20.20;97.90;;;;;;7379123;19;19911;-74
2023/05/07 08:26:52;;;;;;;2.20;1.58;;;20.20;97.10;;;;;;7381684;19;20403;-74
2023/05/07 08:29:21;;;;;;;2.50;1.85;;;20.20;97.10;;;;;;7381597;19;20010;-74
2023/05/07 08:31:49;;;;;;;3.00;1.80;;;20.20;97.10;;;;;;7381927;19;20020;-74
2023/05/07 08:34:18;;;;;;;3.65;2.10;;;20.20;97.00;;;;;;7393429;19;20036;-74
2023/05/07 08:36:49;;;;;;;2.75;1.58;;;20.20;96.60;;;;;;7402871;19;20015;-74
2023/05/07 08:39:18;;;;;;;;;;;20.30;96.70;;;;;;7383253;19;20009;-74
2023/05/07 08:41:48;;;;;;;2.15;1.50;;;20.40;97.20;;;;;;7386614;19;20149;-74
2023/05/07 08:44:18;;;;;;;2.28;1.30;;;20.40;96.90;;;;;;7397015;19;20074;-74
2023/05/07 08:46:50;;;;;;;2.45;1.50;;;20.50;97.00;;;;;;7394994;19;20083;-74
2023/05/07 08:49:20;;;;;;;3.83;1.52;;;20.50;97.50;;;;;;7389946;19;20023;-75
2023/05/07 08:51:51;;;;;;;2.83;1.73;;;20.60;97.20;;;;;;7405623;19;20010;-75
2023/05/07 08:54:20;;;;;;;2.92;1.52;;;20.60;95.90;;;;;;7381226;19;20029;-74
2023/05/07 08:56:49;;;;;;;2.53;1.90;;;20.60;95.50;;;;;;7381198;19;20375;-74
2023/05/07 08:59:18;;;;;;;3.40;1.58;;;20.60;95.80;;;;;;7385344;19;20377;-75
2023/05/07 09:01:47;;;;;;;5.55;2.00;;;20.60;96.30;;;;;;7384873;19;20003;-74
2023/05/07 09:04:16;;;;;;;2.78;1.75;;;20.60;95.80;;;;;;7404472;19;20027;-75
2023/05/07 09:06:44;;;;;;;3.38;1.90;;;20.50;94.90;;;;;;7384309;19;20026;-74
2023/05/07 09:09:17;;;;;;;2.30;1.90;;;20.50;94.70;;;;;;7384108;19;20002;-74
2023/05/07 09:11:46;;;;;;;4.78;1.77;;;20.50;95.10;;;;;;7382117;19;20006;-74
2023/05/07 09:14:15;;;;;;;5.50;2.20;;;20.50;95.40;;;;;;7380612;19;20385;-74
2023/05/07 09:16:44;;;;;;;2.85;2.00;;;20.60;96.10;;;;;;7379541;19;20397;-74
2023/05/07 09:19:12;;;;;;;3.10;2.10;;;20.70;95.60;;;;;;7402216;19;20003;-74
2023/05/07 09:21:41;;;;;;;8.63;2.38;;;20.80;95.50;;;;;;7379538;19;20007;-74
2023/05/07 09:24:10;;;;;;;4.93;2.28;;;20.80;94.40;;;;;;7379768;19;20388;-74
2023/05/07 09:26:41;;;;;;;7.00;2.10;;;20.70;94.20;;;;;;7380588;19;20002;-74
2023/05/07 09:29:13;;;;;;;6.55;2.42;;;20.70;94.40;;;;;;7380562;19;20010;-74
2023/05/07 09:31:42;;;;;;;3.22;1.98;;;20.70;94.50;;;;;;7379638;19;20018;-74
2023/05/07 09:34:11;;;;;;;3.53;2.13;;;20.80;94.30;;;;;;7400163;19;20035;-74
2023/05/07 09:36:40;;;;;;;2.53;1.80;;;20.90;94.50;;;;;;7383327;19;20050;-74
2023/05/07 09:39:09;;;;;;;3.55;1.90;;;21.00;94.40;;;;;;7385906;19;20332;-75
2023/05/07 09:41:47;;;;;;;3.08;1.90;;;21.20;93.70;;;;;;7386464;19;20030;-75
2023/05/07 09:44:17;;;;;;;2.15;1.95;;;21.10;93.80;;;;;;7387006;19;20006;-74
2023/05/07 09:46:46;;;;;;;7.20;2.00;;;21.30;93.50;;;;;;7387243;19;20105;-74
2023/05/07 09:49:23;;;;;;;1.67;1.50;;;21.20;93.80;;;;;;7409947;19;20027;-74
2023/05/07 09:51:53;;;;;;;2.70;1.90;;;21.40;92.80;;;;;;7388360;19;20006;-74
2023/05/07 09:54:22;;;;;;;6.07;1.92;;;21.40;92.40;;;;;;7387241;19;20314;-74
2023/05/07 09:56:54;;;;;;;2.95;1.90;;;21.40;92.40;;;;;;7387992;19;20016;-75
2023/05/07 09:59:25;;;;;;;4.00;1.80;;;21.20;91.90;;;;;;7389325;19;20003;-74
2023/05/07 10:01:56;;;;;;;5.63;2.78;;;21.20;92.50;;;;;;7387215;19;20020;-74
2023/05/07 10:04:28;;;;;;;4.05;2.20;;;21.20;92.70;;;;;;7385257;19;20011;-74
2023/05/07 10:06:58;;;;;;;5.05;2.40;;;21.10;93.20;;;;;;7408100;19;20010;-74
2023/05/07 10:09:28;;;;;;;6.20;2.92;;;21.10;93.20;;;;;;7387427;19;20007;-74
2023/05/07 10:11:59;;;;;;;4.10;2.00;;;21.10;93.20;;;;;;7386326;19;20015;-74
2023/05/07 10:14:30;;;;;;;3.30;1.85;;;21.10;93.30;;;;;;7389204;19;20007;-74
2023/05/07 10:16:59;;;;;;;5.15;1.83;;;21.20;93.30;;;;;;7388348;19;20015;-74
2023/05/07 10:19:29;;;;;;;9.27;2.90;;;21.30;94.00;;;;;;7388225;19;20031;-74
2023/05/07 10:22:04;;;;;;;2.95;1.60;;;21.30;92.90;;;;;;7409259;19;20010;-77
2023/05/07 10:24:36;;;;;;;3.25;1.40;;;21.30;92.30;;;;;;7389155;19;20224;-77
2023/05/07 10:27:12;;;;;;;3.05;1.70;;;21.30;92.80;;;;;;7384848;19;20260;-76
2023/05/07 10:29:50;;;;;;;2.97;1.60;;;21.50;92.10;;;;;;7390362;19;20003;-78
2023/05/07 10:32:38;;;;;;;2.03;1.50;;;21.50;92.10;;;;;;7392545;19;20011;-78
2023/05/07 10:35:14;;;;;;;1.83;1.58;;;21.60;92.20;;;;;;7395980;19;20015;-78
2023/05/07 10:37:46;;;;;;;4.57;1.70;;;21.70;91.90;;;;;;7393684;19;20074;-78
2023/05/07 10:40:17;;;;;;;3.80;1.60;;;21.80;91.70;;;;;;7417121;19;20006;-78
2023/05/07 10:43:06;;;;;;;2.00;1.67;;;21.80;92.00;;;;;;7394823;19;20013;-77
2023/05/07 10:45:35;;;;;;;3.90;1.90;;;21.80;92.20;;;;;;7390231;19;20006;-77
2023/05/07 10:48:18;;;;;;;4.30;1.65;;;21.80;92.40;;;;;;7388986;19;20006;-78
2023/05/07 10:50:48;;;;;;;2.75;1.80;;;21.90;92.10;;;;;;7393198;19;20006;-78
2023/05/07 10:53:30;;;;;;;5.00;1.60;;;22.00;91.70;;;;;;7393768;19;20007;-78
2023/05/07 10:56:32;;;;;;;8.30;2.00;;;22.00;92.10;;;;;;7402474;19;20006;-78
2023/05/07 10:59:31;;;;;;;2.67;1.77;;;21.90;92.20;;;;;;7397958;19;20023;-78
2023/05/07 11:02:06;;;;;;;6.22;2.30;;;22.00;92.30;;;;;;7394751;19;20011;-78
2023/05/07 11:04:38;;;;;;;15.63;7.38;;;22.00;92.30;;;;;;7393771;19;20017;-79
2023/05/07 11:07:29;;;;;;;17.35;6.63;;;21.90;92.50;;;;;;7418451;19;20010;-78
2023/05/07 11:10:08;;;;;;;12.85;4.72;;;21.80;92.50;;;;;;7392365;19;20039;-79
2023/05/07 11:12:56;;;;;;;8.15;2.70;;;21.70;92.60;;;;;;7391541;19;20038;-79
2023/05/07 11:15:47;;;;;;;5.32;2.95;;;21.50;93.50;;;;;;7394940;19;20031;-80
2023/05/07 11:18:22;;;;;;;17.27;4.90;;;21.20;94.50;;;;;;7387973;19;20010;-80
2023/05/07 11:20:59;;;;;;;54.55;8.38;;;20.70;95.80;;;;;;7388838;19;20017;-79
2023/05/07 11:23:59;;;;;;;12.25;4.25;;;20.50;97.10;;;;;;7390216;19;20074;-79
2023/05/07 11:26:31;;;;;;;19.00;4.63;;;20.40;98.00;;;;;;7389586;19;20373;-79
2023/05/07 11:29:00;;;;;;;9.23;4.47;;;20.40;98.30;;;;;;7387051;19;20282;-78
2023/05/07 11:31:31;;;;;;;15.60;6.88;;;20.40;99.00;;;;;;7392935;19;20006;-78
2023/05/07 11:34:08;;;;;;;11.77;5.35;;;20.40;99.60;;;;;;7412882;19;20049;-78
2023/05/07 11:36:39;;;;;;;9.23;5.20;;;20.50;99.90;;;;;;7387807;19;20015;-79
2023/05/07 11:39:08;;;;;;;12.65;4.20;;;20.60;99.90;;;;;;7389542;19;20031;-79
2023/05/07 11:41:39;;;;;;;7.00;4.28;;;20.60;99.90;;;;;;7409298;19;20027;-77
2023/05/07 11:44:08;;;;;;;;;;;20.70;99.90;;;;;;7386092;19;20014;-78
2023/05/07 11:46:37;;;;;;;7.63;4.10;;;20.80;99.90;;;;;;7383248;19;22339;-77
2023/05/07 11:49:09;;;;;;;5.13;3.20;;;20.70;99.90;;;;;;7409997;19;20239;-79
2023/05/07 11:51:53;;;;;;;;;;;;;;;;;;;;;
2023/05/07 11:54:22;;;;;;;7.35;2.80;;;20.60;99.90;;;;;;7381586;19;20073;-76
2023/05/07 11:56:51;;;;;;;4.25;2.85;;;20.60;99.90;;;;;;7383530;19;20373;-77
2023/05/07 11:59:40;;;;;;;4.97;2.85;;;20.60;99.90;;;;;;7393685;19;20050;-79
2023/05/07 12:02:10;;;;;;;5.93;3.28;;;20.60;99.90;;;;;;7383148;19;20006;-78
2023/05/07 12:04:41;;;;;;;4.03;3.05;;;20.60;99.90;;;;;;7386785;19;19992;-80
2023/05/07 12:07:14;;;;;;;3.42;2.50;;;20.60;99.90;;;;;;7403889;19;20022;-77
2023/05/07 12:09:43;;;;;;;5.60;2.90;;;20.70;99.90;;;;;;7383116;19;20255;-76
2023/05/07 12:12:15;;;;;;;5.32;3.60;;;20.90;99.90;;;;;;7382297;19;20011;-77
2023/05/07 12:14:45;;;;;;;9.13;4.03;;;20.90;99.90;;;;;;7383231;19;20389;-77
2023/05/07 12:17:16;;;;;;;8.07;3.65;;;20.90;99.90;;;;;;7382863;19;19999;-78
2023/05/07 12:19:47;;;;;;;;;;;20.90;99.90;;;;;;7388607;19;20357;-82
2023/05/07 12:22:16;;;;;;;9.48;4.45;;;20.90;99.90;;;;;;7409759;19;20474;-78
2023/05/07 12:25:02;;;;;;;12.10;5.00;;;20.80;99.50;;;;;;7383759;19;20007;-77
2023/05/07 12:27:39;;;;;;;5.93;4.50;;;20.60;98.60;;;;;;7385111;19;20014;-78
2023/05/07 12:30:12;;;;;;;8.63;4.60;;;20.20;98.70;;;;;;7381851;19;20012;-78
2023/05/07 12:32:40;;;;;;;11.80;4.45;;;20.10;99.20;;;;;;7381340;19;20018;-77
2023/05/07 12:35:15;;;;;;;5.30;3.97;;;20.10;99.70;;;;;;7404880;19;20013;-77
2023/05/07 12:37:44;;;;;;;11.50;4.88;;;20.00;99.40;;;;;;7406806;19;20019;-79
2023/05/07 12:40:14;;;;;;;10.23;4.93;;;20.00;99.60;;;;;;7407325;19;20017;-75
2023/05/07 12:42:44;;;;;;;12.25;5.32;;;19.80;99.60;;;;;;7404579;19;20062;-77
2023/05/07 12:45:18;;;;;;;9.48;5.97;;;19.70;99.90;;;;;;7402504;19;20018;-76
2023/05/07 12:47:47;;;;;;;8.45;5.68;;;19.80;99.90;;;;;;7403869;19;20013;-76
2023/05/07 12:50:21;;;;;;;9.13;5.50;;;19.80;99.90;;;;;;7407413;19;20010;-79
2023/05/07 12:53:00;;;;;;;11.95;6.10;;;19.50;99.90;;;;;;7406350;19;20406;-78
2023/05/07 12:55:30;;;;;;;15.52;6.55;;;19.60;99.90;;;;;;7406806;19;20353;-78
2023/05/07 12:57:59;;;;;;;30.20;12.88;;;19.70;99.90;;;;;;7402897;19;20364;-77
2023/05/07 13:00:39;;;;;;;38.17;17.20;;;19.80;99.90;;;;;;7405136;19;20011;-78
2023/05/07 13:03:08;;;;;;;14.88;7.18;;;19.80;99.90;;;;;;7403483;19;20023;-77
2023/05/07 13:08:14;;;;;;;15.40;6.78;;;20.10;99.90;;;;;;7349020;19;20010;-75
2023/05/07 13:10:43;;;;;;;26.55;11.98;;;20.20;99.90;;;;;;7414031;19;20010;-76